Time;durP1;ratioP1;P1;durP2;ratioP2;P2;SDS_P1;SDS_P2;PMS_P1;PMS_P2;Temp;Humidity;BMP_temperature;BMP_pressure;BME280_temperature;BME280_humidity;BME280_pressure;Samples;Min_cycle;Max_cycle;Signal;HPM_P1;HPM_P2
2021/12/20 00:01:05;;;;;;;1.70;0.80;;;19.70;45.30;;;;;;5016118;28;20069;-71
2021/12/20 00:03:31;;;;;;;1.25;0.60;;;19.70;45.30;;;;;;5015659;28;20038;-71
2021/12/20 00:05:56;;;;;;;1.17;0.50;;;19.70;45.30;;;;;;5014711;28;20359;-71
2021/12/20 00:08:22;;;;;;;1.25;0.40;;;19.70;45.30;;;;;;5016184;28;20080;-72
2021/12/20 00:10:48;;;;;;;0.85;0.52;;;19.70;45.20;;;;;;5015966;28;20447;-71
2021/12/20 00:13:13;;;;;;;1.45;0.68;;;19.70;45.20;;;;;;5015819;28;20040;-71
2021/12/20 00:15:39;;;;;;;1.45;0.80;;;19.70;46.20;;;;;;5015721;28;20108;-71
2021/12/20 00:18:04;;;;;;;1.10;0.60;;;19.70;45.20;;;;;;5007527;28;20076;-71
2021/12/20 00:20:30;;;;;;;1.02;0.57;;;19.70;45.20;;;;;;4995979;28;20030;-71
2021/12/20 00:22:55;;;;;;;1.20;0.57;;;19.70;45.30;;;;;;4996042;28;20044;-72
2021/12/20 00:25:21;;;;;;;1.40;0.60;;;19.70;45.20;;;;;;4996031;28;20110;-71
2021/12/20 00:27:47;;;;;;;1.13;0.40;;;19.70;45.20;;;;;;4996033;28;20027;-71
2021/12/20 00:30:13;;;;;;;1.00;0.40;;;19.70;45.20;;;;;;4995904;28;20125;-71
2021/12/20 00:32:39;;;;;;;2.47;0.57;;;19.70;45.20;;;;;;4995797;28;20033;-71
2021/12/20 00:35:06;;;;;;;0.80;0.50;;;19.70;45.20;;;;;;4995855;28;20479;-72
2021/12/20 00:40:22;;;;;;;1.00;0.43;;;19.70;45.20;;;;;;4995842;28;20434;-71
2021/12/20 00:42:54;;;;;;;0.88;0.45;;;19.70;45.30;;;;;;4996011;28;20359;-71
2021/12/20 00:45:23;;;;;;;0.63;0.47;;;19.70;45.30;;;;;;4995620;28;20101;-71
2021/12/20 00:47:50;;;;;;;0.77;0.47;;;19.70;45.30;;;;;;4995556;28;20027;-71
2021/12/20 00:50:17;;;;;;;0.90;0.52;;;19.70;45.30;;;;;;4995538;28;20440;-72
2021/12/20 00:52:43;;;;;;;1.92;0.70;;;19.70;45.30;;;;;;4995543;28;20065;-71
2021/12/20 00:55:10;;;;;;;0.70;0.40;;;19.70;45.30;;;;;;5013526;28;20076;-71
2021/12/20 00:57:35;;;;;;;0.75;0.50;;;19.70;45.30;;;;;;5015037;28;20421;-71
2021/12/20 01:00:03;;;;;;;1.00;0.50;;;19.70;45.30;;;;;;5014892;28;20022;-71
2021/12/20 01:02:28;;;;;;;0.80;0.50;;;19.70;45.30;;;;;;5013376;28;20021;-71
2021/12/20 01:04:54;;;;;;;0.85;0.50;;;19.70;45.30;;;;;;5014772;28;20033;-71
2021/12/20 01:07:19;;;;;;;1.02;0.65;;;19.70;45.20;;;;;;5014877;28;20061;-71
2021/12/20 01:09:45;;;;;;;1.25;0.50;;;19.70;45.30;;;;;;5014849;28;20018;-71
2021/12/20 01:12:17;;;;;;;1.50;0.60;;;19.70;45.20;;;;;;5014659;28;20057;-71
2021/12/20 01:14:43;;;;;;;1.00;0.50;;;19.60;45.20;;;;;;5014792;28;20105;-71
2021/12/20 01:17:09;;;;;;;0.70;0.50;;;19.70;45.20;;;;;;5014409;28;20494;-71
2021/12/20 01:19:37;;;;;;;1.00;0.50;;;19.70;45.30;;;;;;5014612;28;20053;-71
2021/12/20 01:22:04;;;;;;;1.23;0.70;;;19.70;45.20;;;;;;5013889;28;20018;-71
2021/12/20 01:24:29;;;;;;;1.02;0.60;;;19.70;45.20;;;;;;5014384;28;20052;-71
2021/12/20 01:26:55;;;;;;;1.00;0.75;;;19.70;45.20;;;;;;5013254;28;20026;-72
2021/12/20 01:29:21;;;;;;;2.05;0.55;;;19.70;45.20;;;;;;5014509;28;20026;-71
2021/12/20 01:31:46;;;;;;;1.27;0.50;;;19.70;45.20;;;;;;5014646;28;20478;-71
2021/12/20 01:34:12;;;;;;;1.23;0.50;;;19.70;45.20;;;;;;5014380;28;20025;-71
2021/12/20 01:36:37;;;;;;;1.30;0.60;;;19.70;45.20;;;;;;5014115;28;20032;-71
2021/12/20 01:39:04;;;;;;;0.93;0.43;;;19.70;45.10;;;;;;5014295;28;20041;-72
2021/12/20 01:41:30;;;;;;;0.68;0.47;;;19.60;46.10;;;;;;5014295;28;20045;-71
2021/12/20 01:43:55;;;;;;;0.73;0.40;;;19.70;45.20;;;;;;5014140;28;20022;-71
2021/12/20 01:46:22;;;;;;;1.10;0.57;;;19.70;45.10;;;;;;5012874;28;20036;-71
2021/12/20 01:48:48;;;;;;;1.10;0.50;;;19.70;45.20;;;;;;5014164;28;20030;-71
2021/12/20 01:53:40;;;;;;;1.05;0.57;;;19.70;45.10;;;;;;5013978;28;20033;-71
2021/12/20 01:56:07;;;;;;;0.73;0.30;;;19.60;45.10;;;;;;5013913;28;20112;-71
2021/12/20 01:58:33;;;;;;;2.03;0.55;;;19.60;45.10;;;;;;5014017;28;20030;-71
2021/12/20 02:03:41;;;;;;;1.00;0.40;;;19.60;45.10;;;;;;5013691;28;20133;-71
2021/12/20 02:06:17;;;;;;;1.38;0.73;;;19.60;45.10;;;;;;5013437;28;20076;-71
2021/12/20 02:08:43;;;;;;;1.50;0.60;;;19.60;45.10;;;;;;5013791;28;20033;-71
2021/12/20 02:11:10;;;;;;;0.95;0.52;;;19.60;45.10;;;;;;5013518;28;20026;-72
2021/12/20 02:13:37;;;;;;;1.70;0.63;;;19.60;45.10;;;;;;5013694;28;20018;-71
2021/12/20 02:16:04;;;;;;;1.08;0.70;;;19.60;45.20;;;;;;5013694;28;20559;-71
2021/12/20 02:18:31;;;;;;;1.55;0.60;;;19.60;45.10;;;;;;5013309;28;20026;-71
2021/12/20 02:20:57;;;;;;;0.98;0.45;;;19.60;45.10;;;;;;5013537;28;20514;-71
2021/12/20 02:23:23;;;;;;;1.08;0.47;;;19.60;45.10;;;;;;5013252;28;20026;-71
2021/12/20 02:25:49;;;;;;;1.30;0.40;;;19.60;45.10;;;;;;5013435;28;20084;-71
2021/12/20 02:28:16;;;;;;;1.38;0.55;;;19.60;45.10;;;;;;5013493;28;20057;-71
2021/12/20 02:36:54;;;;;;;1.25;0.60;;;19.60;45.10;;;;;;5013459;28;20390;-71
2021/12/20 02:39:06;;;;;;;0.63;0.40;;;19.60;45.20;;;;;;5013598;28;20549;-72
2021/12/20 02:41:33;;;;;;;1.27;0.43;;;19.60;45.10;;;;;;5011975;28;20021;-72
2021/12/20 02:44:05;;;;;;;1.08;0.50;;;19.60;45.10;;;;;;5012993;28;20105;-71
2021/12/20 02:49:15;;;;;;;1.02;0.50;;;19.60;45.10;;;;;;5013196;28;20041;-71
2021/12/20 02:51:42;;;;;;;0.52;0.50;;;19.60;45.10;;;;;;5013090;28;20033;-72
2021/12/20 02:54:09;;;;;;;1.30;0.52;;;19.60;45.10;;;;;;5012875;28;20034;-71
2021/12/20 02:56:36;;;;;;;0.88;0.50;;;19.60;45.10;;;;;;5011822;28;20021;-71
2021/12/20 02:59:03;;;;;;;2.65;0.80;;;19.60;45.10;;;;;;5012945;28;20056;-71
2021/12/20 03:01:28;;;;;;;1.20;0.40;;;19.60;45.10;;;;;;5012996;28;20022;-71
2021/12/20 03:03:55;;;;;;;1.55;0.60;;;19.60;45.10;;;;;;5012582;28;20525;-71
2021/12/20 03:06:29;;;;;;;0.95;0.43;;;19.60;45.10;;;;;;5012811;28;20026;-71
2021/12/20 03:08:56;;;;;;;1.45;0.60;;;19.60;45.00;;;;;;5012781;28;20034;-71
2021/12/20 03:11:24;;;;;;;1.17;0.50;;;19.60;45.10;;;;;;5011659;28;20026;-72
2021/12/20 03:13:54;;;;;;;2.58;0.77;;;19.60;45.00;;;;;;5012693;28;20028;-72
2021/12/20 03:16:20;;;;;;;1.23;0.40;;;19.60;45.10;;;;;;5011844;28;20022;-71
2021/12/20 03:18:46;;;;;;;1.75;0.60;;;19.60;45.00;;;;;;5014528;28;20018;-71
2021/12/20 03:21:12;;;;;;;1.52;0.50;;;19.60;45.00;;;;;;5016850;28;20076;-71
2021/12/20 03:23:38;;;;;;;1.00;0.47;;;19.60;45.00;;;;;;5016713;28;20093;-71
2021/12/20 03:26:05;;;;;;;2.08;0.35;;;19.60;45.00;;;;;;5016771;28;20560;-71
2021/12/20 03:28:30;;;;;;;1.58;0.50;;;19.60;45.00;;;;;;5016710;28;20088;-71
2021/12/20 03:30:56;;;;;;;0.85;0.40;;;19.60;45.00;;;;;;5017016;28;20385;-71
2021/12/20 03:33:22;;;;;;;1.30;0.60;;;19.60;45.00;;;;;;5016625;28;20030;-71
2021/12/20 03:35:47;;;;;;;0.70;0.50;;;19.60;45.00;;;;;;5016519;28;20081;-71
2021/12/20 03:38:13;;;;;;;1.52;0.57;;;19.60;45.00;;;;;;5015174;28;20537;-72
2021/12/20 03:40:38;;;;;;;1.25;0.50;;;19.60;45.00;;;;;;5015297;28;20133;-71
2021/12/20 03:43:06;;;;;;;1.13;0.40;;;19.60;45.10;;;;;;5016404;28;20501;-71
2021/12/20 03:45:33;;;;;;;1.20;0.57;;;19.60;45.10;;;;;;5016393;28;20029;-72
2021/12/20 03:47:59;;;;;;;1.33;0.40;;;19.60;45.00;;;;;;5016269;28;20049;-71
2021/12/20 03:50:24;;;;;;;1.05;0.50;;;19.60;45.10;;;;;;5015176;28;20119;-72
2021/12/20 03:52:50;;;;;;;1.45;0.60;;;19.60;45.00;;;;;;5016071;28;20026;-71
2021/12/20 03:55:16;;;;;;;1.42;0.55;;;19.60;45.00;;;;;;5016247;28;20025;-71
2021/12/20 03:57:42;;;;;;;1.88;0.63;;;19.60;45.00;;;;;;5016153;28;20034;-71
2021/12/20 04:00:10;;;;;;;1.08;0.57;;;19.60;45.10;;;;;;5016158;28;20025;-71
2021/12/20 04:02:41;;;;;;;1.40;0.43;;;19.60;45.10;;;;;;5014861;28;20026;-71
2021/12/20 04:05:07;;;;;;;1.85;0.60;;;19.60;45.00;;;;;;5014779;28;20022;-71
2021/12/20 04:07:33;;;;;;;2.72;0.63;;;19.60;45.00;;;;;;5016019;28;20105;-71
2021/12/20 04:09:58;;;;;;;1.95;0.80;;;19.60;45.00;;;;;;5015904;28;20532;-72
2021/12/20 04:12:24;;;;;;;1.13;0.60;;;19.60;45.00;;;;;;5014617;28;20413;-72
2021/12/20 04:14:50;;;;;;;2.08;0.70;;;19.60;45.00;;;;;;5014771;28;20022;-72
2021/12/20 04:17:15;;;;;;;1.98;0.60;;;19.60;45.00;;;;;;5010584;28;20133;-71
2021/12/20 04:19:41;;;;;;;2.00;0.63;;;19.60;45.00;;;;;;5015644;28;20184;-71
2021/12/20 04:22:06;;;;;;;1.83;0.60;;;19.60;45.00;;;;;;5015788;28;20022;-71
2021/12/20 04:24:32;;;;;;;0.63;0.40;;;19.60;45.00;;;;;;5015593;28;20386;-72
2021/12/20 04:26:57;;;;;;;1.88;0.70;;;19.60;45.00;;;;;;5015687;28;20036;-72
2021/12/20 04:29:23;;;;;;;2.42;0.70;;;19.60;45.00;;;;;;5015230;28;20029;-71
2021/12/20 04:31:49;;;;;;;1.02;0.45;;;19.60;45.10;;;;;;5015619;28;20509;-71
2021/12/20 04:34:15;;;;;;;1.73;0.63;;;19.60;45.10;;;;;;5015339;28;20477;-71
2021/12/20 04:36:41;;;;;;;1.35;0.63;;;19.60;45.10;;;;;;5015399;28;20125;-71
2021/12/20 04:39:11;;;;;;;1.65;0.50;;;19.50;45.00;;;;;;5014092;28;20549;-71
2021/12/20 04:41:37;;;;;;;1.30;0.50;;;19.60;45.00;;;;;;5015425;28;20166;-71
2021/12/20 04:44:03;;;;;;;2.10;0.60;;;19.60;45.00;;;;;;5015288;28;20025;-71
2021/12/20 04:46:28;;;;;;;2.05;0.80;;;19.60;45.00;;;;;;5015349;28;20030;-72
2021/12/20 04:48:54;;;;;;;0.93;0.45;;;19.60;45.00;;;;;;5015084;28;20038;-71
2021/12/20 04:51:19;;;;;;;1.67;0.52;;;19.60;45.00;;;;;;5015155;28;20022;-72
2021/12/20 04:53:45;;;;;;;1.05;0.50;;;19.50;45.00;;;;;;5014975;28;20467;-72
2021/12/20 04:56:10;;;;;;;2.53;1.17;;;19.50;45.00;;;;;;5015100;28;20057;-71
2021/12/20 04:58:36;;;;;;;2.42;0.55;;;19.50;45.00;;;;;;5015146;28;20382;-71
2021/12/20 05:01:02;;;;;;;2.42;0.70;;;19.50;45.00;;;;;;5014994;28;20022;-71
2021/12/20 05:03:28;;;;;;;1.05;0.50;;;19.50;45.00;;;;;;5014811;28;20474;-71
2021/12/20 05:05:53;;;;;;;1.67;0.50;;;19.50;45.00;;;;;;5014809;28;20026;-71
2021/12/20 05:08:19;;;;;;;1.73;0.60;;;19.50;45.00;;;;;;5014850;28;20030;-71
2021/12/20 05:10:45;;;;;;;1.55;0.50;;;19.50;45.00;;;;;;5014875;28;20410;-71
2021/12/20 05:13:13;;;;;;;1.13;0.60;;;19.50;44.90;;;;;;5014653;28;20033;-71
2021/12/20 05:15:39;;;;;;;1.88;0.73;;;19.50;44.90;;;;;;5013321;28;20057;-71
2021/12/20 05:18:08;;;;;;;1.63;0.60;;;19.50;44.90;;;;;;5014429;28;20391;-71
2021/12/20 05:20:34;;;;;;;1.67;0.60;;;19.50;44.90;;;;;;5014553;28;20081;-71
2021/12/20 05:23:02;;;;;;;1.67;0.70;;;19.50;44.90;;;;;;5014572;28;20026;-71
2021/12/20 05:25:28;;;;;;;1.25;0.55;;;19.50;44.90;;;;;;5014575;28;20022;-71
2021/12/20 05:27:54;;;;;;;1.90;0.60;;;19.50;44.90;;;;;;5014488;28;20577;-71
2021/12/20 05:30:20;;;;;;;1.05;0.50;;;19.50;44.90;;;;;;5014318;28;20030;-71
2021/12/20 05:32:47;;;;;;;1.70;0.55;;;19.50;44.90;;;;;;5014474;28;20036;-71
2021/12/20 05:35:14;;;;;;;1.73;0.70;;;19.50;44.90;;;;;;5014308;28;20018;-71
2021/12/20 05:37:40;;;;;;;2.47;0.60;;;19.50;44.80;;;;;;5013093;28;20030;-71
2021/12/20 05:40:07;;;;;;;0.98;0.52;;;19.50;44.80;;;;;;5014080;28;20481;-71
2021/12/20 05:42:33;;;;;;;1.77;0.60;;;19.50;44.90;;;;;;5013887;28;20037;-72
2021/12/20 05:44:59;;;;;;;1.40;0.40;;;19.50;44.80;;;;;;5014148;28;20030;-72
2021/12/20 05:47:24;;;;;;;2.28;0.63;;;19.60;44.90;;;;;;5014188;28;20030;-71
2021/12/20 05:49:50;;;;;;;2.03;0.65;;;19.60;44.80;;;;;;5012718;28;20079;-71
2021/12/20 05:52:16;;;;;;;1.98;0.60;;;19.60;44.80;;;;;;5012824;28;20117;-71
2021/12/20 05:54:42;;;;;;;2.55;0.80;;;19.70;44.90;;;;;;5011921;28;20497;-71
2021/12/20 05:57:07;;;;;;;1.70;0.85;;;19.70;44.90;;;;;;5013917;28;20104;-71
2021/12/20 05:59:34;;;;;;;2.53;0.63;;;19.80;44.90;;;;;;5012768;28;20022;-71
2021/12/20 06:02:00;;;;;;;1.65;0.57;;;19.90;44.80;;;;;;5013798;28;20144;-71
2021/12/20 06:04:26;;;;;;;1.85;0.70;;;19.90;44.80;;;;;;5013423;28;20053;-71
2021/12/20 06:06:51;;;;;;;1.88;0.63;;;20.00;44.70;;;;;;5013976;28;20022;-72
2021/12/20 06:09:17;;;;;;;1.27;0.50;;;20.10;44.60;;;;;;5013923;28;20030;-71
2021/12/20 06:11:42;;;;;;;1.80;0.70;;;20.20;44.50;;;;;;5011567;28;20115;-71
2021/12/20 06:14:08;;;;;;;1.80;0.70;;;20.20;44.50;;;;;;4994811;28;20037;-71
2021/12/20 06:16:33;;;;;;;2.30;0.75;;;20.30;44.40;;;;;;4993897;28;20030;-71
2021/12/20 06:18:59;;;;;;;1.67;0.60;;;20.30;44.20;;;;;;5009458;28;20048;-71
2021/12/20 06:21:25;;;;;;;2.20;0.90;;;20.40;44.10;;;;;;5013599;28;20386;-71
2021/12/20 06:23:50;;;;;;;2.28;0.75;;;20.50;44.10;;;;;;5013561;28;20069;-72
2021/12/20 06:26:16;;;;;;;1.50;0.60;;;20.50;44.00;;;;;;5012476;28;20117;-71
2021/12/20 06:28:42;;;;;;;1.83;0.80;;;20.50;43.80;;;;;;5013386;28;20041;-71
2021/12/20 06:31:08;;;;;;;1.58;0.57;;;20.60;43.80;;;;;;5013288;28;20109;-72
2021/12/20 06:33:33;;;;;;;1.63;0.60;;;20.70;43.80;;;;;;5013415;28;20112;-71
2021/12/20 06:35:59;;;;;;;2.15;0.60;;;20.70;43.70;;;;;;5011986;28;20033;-71
2021/12/20 06:38:24;;;;;;;1.67;0.60;;;20.70;43.70;;;;;;5011987;28;20107;-71
2021/12/20 06:40:51;;;;;;;2.45;0.77;;;20.80;43.70;;;;;;5013193;28;20057;-71
2021/12/20 06:43:18;;;;;;;3.33;0.82;;;20.80;43.60;;;;;;5013300;28;20029;-72
2021/12/20 06:45:43;;;;;;;1.95;0.70;;;20.90;43.60;;;;;;5013182;28;20109;-72
2021/12/20 06:48:09;;;;;;;3.25;0.88;;;20.90;43.50;;;;;;5013212;28;20057;-72
2021/12/20 06:50:35;;;;;;;1.45;0.70;;;20.90;43.50;;;;;;5012975;28;20110;-72
2021/12/20 06:53:02;;;;;;;2.88;0.50;;;21.00;43.40;;;;;;5013130;28;20022;-71
2021/12/20 06:55:28;;;;;;;1.58;0.52;;;21.00;43.40;;;;;;5013108;28;20026;-71
2021/12/20 06:57:54;;;;;;;1.88;0.47;;;21.00;43.30;;;;;;5012899;28;20026;-71
2021/12/20 07:00:20;;;;;;;1.48;0.40;;;21.10;43.30;;;;;;5012984;28;20026;-71
2021/12/20 07:02:45;;;;;;;1.67;0.60;;;21.10;43.30;;;;;;5012723;28;20505;-71
2021/12/20 07:05:11;;;;;;;2.65;0.70;;;21.10;43.20;;;;;;5012901;28;20018;-71
2021/12/20 07:07:36;;;;;;;2.22;0.80;;;21.10;43.20;;;;;;5012859;28;20504;-71
2021/12/20 07:10:06;;;;;;;1.77;0.50;;;21.20;43.30;;;;;;5012872;28;20025;-71
2021/12/20 07:12:35;;;;;;;1.15;0.55;;;21.20;43.20;;;;;;5012580;28;20030;-71
2021/12/20 07:15:00;;;;;;;1.15;0.50;;;21.20;43.20;;;;;;5012998;28;20033;-71
2021/12/20 07:17:26;;;;;;;2.70;0.95;;;21.20;43.10;;;;;;5009821;28;20414;-71
2021/12/20 07:19:52;;;;;;;1.85;0.60;;;21.30;43.10;;;;;;4993203;28;20382;-71
2021/12/20 07:22:17;;;;;;;2.63;0.68;;;21.30;43.10;;;;;;4993157;28;20046;-71
2021/12/20 07:24:42;;;;;;;1.50;0.55;;;21.30;43.10;;;;;;4993195;28;20026;-75
2021/12/20 07:27:10;;;;;;;2.42;0.73;;;21.30;43.00;;;;;;4993232;28;20032;-72
2021/12/20 07:29:36;;;;;;;2.33;0.60;;;21.30;43.00;;;;;;4993388;28;20080;-71
2021/12/20 07:32:02;;;;;;;1.77;0.60;;;21.40;43.00;;;;;;4991890;28;20102;-71
2021/12/20 07:34:28;;;;;;;1.17;0.52;;;21.40;43.00;;;;;;4993282;28;20026;-71
2021/12/20 07:36:54;;;;;;;1.80;0.52;;;21.40;43.00;;;;;;4992824;28;20032;-71
2021/12/20 07:39:19;;;;;;;2.22;0.80;;;21.40;42.90;;;;;;4993100;28;20037;-72
2021/12/20 07:41:46;;;;;;;1.70;0.60;;;21.50;43.00;;;;;;4991776;28;20019;-72
2021/12/20 07:44:12;;;;;;;1.40;0.57;;;21.50;43.00;;;;;;4993094;28;20530;-71
2021/12/20 07:46:37;;;;;;;2.25;0.80;;;21.50;42.90;;;;;;4991669;28;20038;-71
2021/12/20 07:49:03;;;;;;;2.78;0.80;;;21.50;42.90;;;;;;4993080;28;20041;-71
2021/12/20 07:51:28;;;;;;;1.35;0.63;;;21.50;42.80;;;;;;4991743;28;20026;-71
2021/12/20 07:53:54;;;;;;;2.28;0.70;;;21.60;42.80;;;;;;4991687;28;20076;-71
2021/12/20 07:56:20;;;;;;;1.38;0.47;;;21.60;42.90;;;;;;4992813;28;20126;-71
2021/12/20 07:58:45;;;;;;;2.08;0.60;;;21.60;42.80;;;;;;4993745;28;20025;-71
2021/12/20 08:01:11;;;;;;;1.65;0.55;;;21.60;42.90;;;;;;5012501;28;20053;-71
2021/12/20 08:03:38;;;;;;;1.30;0.60;;;21.60;42.70;;;;;;5012156;28;20092;-72
2021/12/20 08:06:04;;;;;;;2.00;0.60;;;21.60;42.70;;;;;;5016331;28;20655;-71
2021/12/20 08:08:29;;;;;;;1.58;0.60;;;21.70;42.60;;;;;;5016106;28;20045;-72
2021/12/20 08:10:55;;;;;;;1.63;0.63;;;21.70;42.70;;;;;;5016231;28;20076;-72
2021/12/20 08:13:21;;;;;;;2.13;0.68;;;21.70;42.70;;;;;;5016199;28;20029;-72
2021/12/20 08:15:47;;;;;;;1.23;0.40;;;21.70;42.60;;;;;;5016206;28;20088;-72
2021/12/20 08:18:13;;;;;;;2.10;0.57;;;21.70;42.60;;;;;;5016117;28;20026;-72
2021/12/20 08:20:39;;;;;;;1.08;0.50;;;21.70;42.60;;;;;;5016163;28;20026;-72
2021/12/20 08:23:04;;;;;;;2.45;0.82;;;21.80;42.70;;;;;;5016010;28;20513;-72
2021/12/20 08:25:30;;;;;;;1.17;0.50;;;21.80;42.60;;;;;;5016187;28;20018;-72
2021/12/20 08:27:56;;;;;;;1.05;0.50;;;21.80;42.60;;;;;;5014904;28;20026;-72
2021/12/20 08:30:22;;;;;;;1.65;0.80;;;21.80;42.50;;;;;;5015940;28;20030;-72
2021/12/20 08:32:48;;;;;;;2.15;0.60;;;21.80;42.40;;;;;;5016172;28;20080;-71
2021/12/20 08:35:14;;;;;;;1.73;0.57;;;21.80;42.50;;;;;;5016086;28;20068;-71
2021/12/20 08:37:41;;;;;;;2.92;0.70;;;21.80;42.50;;;;;;5014510;28;20037;-72
2021/12/20 08:40:10;;;;;;;1.52;0.50;;;21.90;42.50;;;;;;5015878;28;20140;-71
2021/12/20 08:42:36;;;;;;;1.83;0.80;;;21.90;42.40;;;;;;5014720;28;20029;-71
2021/12/20 08:45:03;;;;;;;1.13;0.60;;;21.90;42.40;;;;;;5015795;28;20024;-71
2021/12/20 08:47:32;;;;;;;1.55;0.73;;;21.90;42.50;;;;;;5015829;28;20436;-71
2021/12/20 08:49:59;;;;;;;1.90;0.60;;;21.90;42.40;;;;;;5015682;28;20051;-72
2021/12/20 08:52:24;;;;;;;1.55;0.80;;;21.90;42.40;;;;;;5015514;28;20328;-72
2021/12/20 08:54:50;;;;;;;0.85;0.40;;;21.90;42.40;;;;;;5014246;28;20026;-72
2021/12/20 08:57:15;;;;;;;1.08;0.55;;;22.00;42.40;;;;;;5015487;28;20068;-72
2021/12/20 08:59:41;;;;;;;1.67;0.75;;;22.00;42.40;;;;;;5015209;28;20014;-72
2021/12/20 09:02:08;;;;;;;2.30;0.68;;;22.00;42.40;;;;;;5015510;28;20029;-72
2021/12/20 09:04:34;;;;;;;1.52;0.60;;;22.00;42.40;;;;;;5015071;28;20042;-72
2021/12/20 09:07:00;;;;;;;1.75;0.65;;;22.00;42.40;;;;;;5015494;28;20030;-72
2021/12/20 09:09:25;;;;;;;1.30;0.50;;;22.00;42.30;;;;;;5015292;28;20049;-72
2021/12/20 09:11:51;;;;;;;2.60;0.57;;;22.00;42.30;;;;;;5015043;28;20089;-72
2021/12/20 09:14:16;;;;;;;1.95;0.80;;;22.00;42.30;;;;;;5015109;28;20033;-72
2021/12/20 09:16:42;;;;;;;1.60;0.52;;;22.00;42.30;;;;;;5013965;28;20037;-72
2021/12/20 09:19:08;;;;;;;2.88;0.60;;;22.10;42.30;;;;;;4996991;28;20092;-72
2021/12/20 09:21:34;;;;;;;1.83;0.60;;;22.10;42.30;;;;;;4995418;28;20033;-72
2021/12/20 09:24:01;;;;;;;2.00;0.85;;;22.10;42.30;;;;;;4995425;28;20387;-72
2021/12/20 09:26:26;;;;;;;1.67;0.57;;;22.10;42.30;;;;;;4995495;28;20026;-72
2021/12/20 09:28:52;;;;;;;2.53;0.75;;;22.10;42.30;;;;;;4995401;28;20113;-72
2021/12/20 09:31:18;;;;;;;1.73;0.50;;;22.10;42.20;;;;;;4995474;28;20101;-71
2021/12/20 09:33:43;;;;;;;2.22;0.70;;;22.10;42.30;;;;;;4995262;28;20442;-72
2021/12/20 09:36:09;;;;;;;1.75;0.63;;;22.10;42.20;;;;;;4995945;28;20054;-72
2021/12/20 09:38:35;;;;;;;2.15;0.50;;;22.10;42.20;;;;;;4994495;28;20034;-72
2021/12/20 09:43:48;;;;;;;2.25;0.63;;;22.10;42.20;;;;;;4996217;28;20046;-72
2021/12/20 09:46:15;;;;;;;1.30;0.30;;;22.10;42.20;;;;;;4995832;28;20105;-72
2021/12/20 09:48:44;;;;;;;1.40;0.40;;;22.20;42.20;;;;;;4994265;28;20033;-72
2021/12/20 09:51:10;;;;;;;2.03;0.73;;;22.20;42.20;;;;;;4995672;28;20022;-72
2021/12/20 09:53:35;;;;;;;1.25;0.43;;;22.20;42.20;;;;;;4994152;28;20133;-72
2021/12/20 09:56:02;;;;;;;0.90;0.45;;;22.20;42.10;;;;;;4994359;28;20121;-72
2021/12/20 09:58:32;;;;;;;2.92;0.73;;;22.20;42.10;;;;;;4995810;28;20030;-72
2021/12/20 10:00:58;;;;;;;2.53;0.90;;;22.20;42.10;;;;;;5014147;28;20033;-72
2021/12/20 10:03:24;;;;;;;2.00;0.63;;;22.20;42.10;;;;;;5013593;28;20041;-72
2021/12/20 10:05:54;;;;;;;1.77;0.75;;;22.20;42.10;;;;;;5014960;28;20025;-72
2021/12/20 10:08:26;;;;;;;1.33;0.50;;;22.20;42.10;;;;;;5015063;28;20021;-72
2021/12/20 10:10:52;;;;;;;2.00;0.90;;;22.20;42.00;;;;;;5013674;28;20029;-72
2021/12/20 10:13:24;;;;;;;3.00;0.88;;;22.20;42.10;;;;;;5014630;28;20021;-72
2021/12/20 10:15:49;;;;;;;;;;;22.20;41.90;;;;;;5015364;28;20426;-72
2021/12/20 10:18:15;;;;;;;3.92;0.90;;;22.20;42.50;;;;;;5015003;28;19909;-72
2021/12/20 10:20:49;;;;;;;2.67;0.60;;;22.10;42.10;;;;;;5013658;28;20034;-72
2021/12/20 10:23:25;;;;;;;1.98;0.60;;;22.20;42.10;;;;;;5013637;28;20507;-72
2021/12/20 10:26:18;;;;;;;1.38;0.60;;;22.20;42.10;;;;;;5015078;28;20048;-72
2021/12/20 10:28:44;;;;;;;2.92;0.70;;;22.30;42.10;;;;;;5014340;28;20140;-72
2021/12/20 10:31:25;;;;;;;2.67;0.63;;;22.20;42.10;;;;;;5014906;28;20084;-72
2021/12/20 10:33:55;;;;;;;3.55;0.50;;;22.20;42.10;;;;;;5014946;28;20025;-72
2021/12/20 10:36:21;;;;;;;2.40;0.75;;;22.30;42.10;;;;;;5014488;28;20065;-72
2021/12/20 10:38:56;;;;;;;2.67;0.73;;;22.20;42.00;;;;;;5014563;28;20026;-72
2021/12/20 10:41:36;;;;;;;2.30;0.68;;;22.30;42.00;;;;;;5013469;28;20022;-72
2021/12/20 10:44:15;;;;;;;3.33;0.95;;;22.30;42.00;;;;;;5014270;28;20017;-72
2021/12/20 10:46:56;;;;;;;2.92;0.85;;;22.30;42.00;;;;;;5015311;28;20452;-72
2021/12/20 10:49:27;;;;;;;2.72;1.05;;;22.30;41.90;;;;;;5015074;28;20014;-72
2021/12/20 10:51:54;;;;;;;3.78;0.80;;;22.30;41.80;;;;;;5013136;28;20057;-72
2021/12/20 10:54:22;;;;;;;2.92;0.70;;;22.30;41.80;;;;;;5014414;28;20422;-72
2021/12/20 10:56:52;;;;;;;2.65;0.82;;;22.30;41.80;;;;;;5014592;28;20030;-72
2021/12/20 10:59:23;;;;;;;2.08;0.70;;;22.30;41.80;;;;;;5014548;28;20539;-72
2021/12/20 11:04:39;;;;;;;2.30;0.85;;;22.40;41.90;;;;;;5014025;28;20069;-72
2021/12/20 11:09:40;;;;;;;2.72;0.80;;;22.40;42.70;;;;;;5014625;28;20033;-72
2021/12/20 11:12:07;;;;;;;1.58;0.60;;;22.40;41.80;;;;;;5013987;28;20036;-73
2021/12/20 11:14:39;;;;;;;2.58;0.63;;;22.40;41.80;;;;;;5013941;28;20061;-72
2021/12/20 11:17:07;;;;;;;2.13;0.80;;;22.40;41.70;;;;;;5013633;28;20076;-72
2021/12/20 11:19:37;;;;;;;1.52;0.75;;;22.40;41.60;;;;;;4994472;28;20018;-72
2021/12/20 11:22:15;;;;;;;2.33;0.57;;;22.40;41.80;;;;;;4993305;28;20117;-72
2021/12/20 11:24:44;;;;;;;1.55;0.75;;;22.40;41.60;;;;;;4994121;28;20022;-72
2021/12/20 11:27:14;;;;;;;1.73;0.60;;;22.40;41.70;;;;;;4994395;28;20023;-72
2021/12/20 11:29:40;;;;;;;3.03;0.82;;;22.40;41.60;;;;;;4993279;28;20164;-72
2021/12/20 11:32:07;;;;;;;2.00;0.75;;;22.40;41.70;;;;;;4994239;28;20050;-72
2021/12/20 11:34:34;;;;;;;3.38;0.77;;;22.40;41.70;;;;;;4994142;28;20019;-72
2021/12/20 11:37:00;;;;;;;3.30;1.10;;;22.50;41.70;;;;;;4994183;28;20617;-72
2021/12/20 11:39:26;;;;;;;2.50;0.85;;;22.50;41.70;;;;;;4995469;28;20026;-72
2021/12/20 11:41:52;;;;;;;2.13;0.70;;;22.50;41.70;;;;;;4998160;28;20029;-72
2021/12/20 11:44:20;;;;;;;3.45;0.60;;;22.50;41.70;;;;;;4998401;28;20500;-71
2021/12/20 11:46:57;;;;;;;2.40;0.73;;;22.50;41.70;;;;;;4998046;28;20023;-72
2021/12/20 11:49:24;;;;;;;3.05;0.63;;;22.50;41.70;;;;;;4998017;28;20541;-72
2021/12/20 11:52:04;;;;;;;1.70;0.70;;;22.50;41.70;;;;;;4996639;28;20023;-72
2021/12/20 11:54:32;;;;;;;3.35;0.98;;;22.50;41.70;;;;;;4998061;28;20034;-72
2021/12/20 11:56:57;;;;;;;1.85;0.70;;;22.50;41.70;;;;;;4996753;28;20026;-72
2021/12/20 11:59:46;;;;;;;2.30;0.88;;;22.50;41.70;;;;;;4999116;28;20525;-72
2021/12/20 12:02:19;;;;;;;2.83;0.80;;;22.60;41.60;;;;;;4997948;28;20066;-72
2021/12/20 12:05:29;;;;;;;3.70;0.73;;;22.50;41.70;;;;;;5012977;28;20510;-71
2021/12/20 12:08:14;;;;;;;2.42;0.73;;;22.50;41.60;;;;;;4956857;29;20046;-72
2021/12/20 12:10:40;;;;;;;2.42;0.80;;;22.50;41.90;;;;;;5016169;28;20560;-72
2021/12/20 12:13:14;;;;;;;3.53;0.88;;;22.50;42.80;;;;;;5017120;28;20034;-72
2021/12/20 12:16:16;;;;;;;3.35;1.05;;;22.50;42.70;;;;;;5017104;28;20537;-72
2021/12/20 12:18:48;;;;;;;2.72;0.60;;;22.50;41.70;;;;;;5002794;28;20026;-72
2021/12/20 12:21:32;;;;;;;3.03;0.90;;;22.50;41.80;;;;;;4995949;28;20077;-72
2021/12/20 12:24:05;;;;;;;2.22;0.70;;;22.50;41.70;;;;;;4997341;28;20022;-72
2021/12/20 12:26:39;;;;;;;2.28;0.85;;;22.50;42.70;;;;;;4997214;28;20029;-72
2021/12/20 12:29:07;;;;;;;3.13;0.60;;;22.50;41.80;;;;;;4996091;28;20077;-72
2021/12/20 12:32:02;;;;;;;2.35;0.65;;;22.50;41.80;;;;;;4997703;28;20027;-72
2021/12/20 12:34:42;;;;;;;3.45;0.80;;;22.60;41.70;;;;;;4991160;28;20089;-72
2021/12/20 12:37:27;;;;;;;2.33;0.70;;;22.50;41.70;;;;;;4997017;28;20026;-72
2021/12/20 12:40:23;;;;;;;2.00;0.73;;;22.50;41.70;;;;;;4995895;28;20062;-72
2021/12/20 12:42:54;;;;;;;2.15;0.80;;;22.50;41.70;;;;;;4997099;28;20023;-72
2021/12/20 12:45:50;;;;;;;2.40;0.55;;;22.50;41.80;;;;;;4997355;28;20034;-72
2021/12/20 12:48:49;;;;;;;1.80;0.80;;;22.50;41.70;;;;;;4992328;28;20054;-72
2021/12/20 12:51:20;;;;;;;2.33;0.70;;;22.50;41.70;;;;;;4996942;28;20026;-72
2021/12/20 12:53:54;;;;;;;1.77;0.50;;;22.50;41.80;;;;;;4996262;28;20149;-72
2021/12/20 12:56:25;;;;;;;2.22;0.73;;;22.50;41.70;;;;;;4996966;28;20023;-72
2021/12/20 12:59:14;;;;;;;2.50;1.03;;;22.60;41.80;;;;;;4998495;28;20483;-72
2021/12/20 13:01:51;;;;;;;3.42;1.02;;;22.50;41.70;;;;;;5015522;28;20263;-73
2021/12/20 13:04:16;;;;;;;2.97;0.90;;;22.50;41.80;;;;;;5015430;28;20403;-72
2021/12/20 13:06:42;;;;;;;3.50;0.98;;;22.50;41.90;;;;;;5016384;28;20057;-72
2021/12/20 13:09:07;;;;;;;3.40;0.65;;;22.50;41.70;;;;;;5016190;28;20037;-72
2021/12/20 13:11:33;;;;;;;3.80;0.80;;;22.50;41.70;;;;;;5014722;28;20025;-72
2021/12/20 13:14:12;;;;;;;2.90;1.05;;;22.50;41.70;;;;;;5016216;28;20022;-72
2021/12/20 13:16:49;;;;;;;3.28;1.00;;;22.50;41.70;;;;;;5016397;28;20053;-72